Flight Track Log - Related Links

Times and Time Zones

All times are in EDT time to prevent confusion due to time zone crossing. See the AAL2007 flight status page for this flight to view local times or setup timezone preferences in your user account.

Time Position Orientation Groundspeed Altitude Reporting Facility
EDT Latitude Longitude Course Direction KTS MPH feet Rate Location/Type
Sat 18:04:54 41.9833 -87.8667 207° Southwest 164 189 2,300  Level Chicago TRACON
Sat 18:06:00 41.9333 -87.8167 143° Southeast 225 259 4,500 2,653 Climbing Chicago TRACON
Sat 18:07:00 41.7009 -88.1876 201° Southwest  Level Estimated
Sat 18:08:00 41.6072 -88.2807 197° South  Level Estimated
Sat 18:08:13 41.7800 -87.8278 183° South 278 320 11,100  Level Chicago Center
Sat 18:09:00 41.5134 -88.3736 194° South  Level Estimated
Sat 18:09:14 41.7125 -87.8942 216° Southwest 302 348 14,000  Level Chicago Center
Sat 18:10:00 41.4195 -88.4661 207° Southwest  Level Estimated
Sat 18:10:16 41.6367 -87.9642 215° Southwest 338 389 15,300  Level Chicago Center
Sat 18:11:18 41.5533 -88.0411 215° Southwest 362 417 17,800 2,274 Climbing Chicago Center
Sat 18:12:20 41.4506 -88.1353 214° Southwest 388 447 20,000 2,049 Climbing Chicago Center
Sat 18:13:21 41.3553 -88.2050 209° Southwest 404 465 22,000 1,805 Climbing Chicago Center
Sat 18:14:23 41.2489 -88.2517 198° South 408 470 23,700 1,694 Climbing Chicago Center
Sat 18:15:25 41.1389 -88.3019 199° South 420 483 25,500 1,790 Climbing Chicago Center
Sat 18:16:27 41.0122 -88.3892 207° Southwest 443 510 27,400 1,694 Climbing Chicago Center
Sat 18:17:29 40.9183 -88.4967 221° Southwest 445 512 29,000 1,659 Climbing Chicago Center
Sat 18:18:30 40.8189 -88.5947 217° Southwest 447 514 30,800 1,463 Climbing Chicago Center
Sat 18:19:32 40.7222 -88.6894 217° Southwest 440 506 32,000 581 Climbing Chicago Center
Sat 18:20:34 40.6247 -88.7861 217° Southwest 440 506 32,000  Level Chicago Center
Sat 18:21:36 40.5103 -88.8969 216° Southwest 440 506 32,000  Level Chicago Center
Sat 18:22:37 40.4117 -88.9942 217° Southwest 441 507 32,000  Level Chicago Center
Sat 18:23:39 40.3119 -89.0936 217° Southwest 445 512 32,000  Level Chicago Center
Sat 18:24:41 40.2108 -89.1914 216° Southwest 449 517 32,000  Level Chicago Center
Sat 18:25:43 40.1108 -89.2897 217° Southwest 446 513 32,000  Level Chicago Center
Sat 18:26:30 40.0292 -89.3697 217° Southwest 451 519 32,000  Level Kansas City Center
Sat 18:27:31 39.9281 -89.4669 216° Southwest 451 519 32,000  Level Kansas City Center
Sat 18:27:46 39.9097 -89.4853 217° Southwest 446 513 32,000  Level Chicago Center
Sat 18:28:33 39.8278 -89.5644 217° Southwest 451 519 32,000  Level Kansas City Center
Sat 18:29:34 39.7289 -89.6594 216° Southwest 445 512 32,000 244 Level Kansas City Center
Sat 18:30:36 39.6314 -89.7525 216° Southwest 443 510 32,500 732 Climbing Kansas City Center
Sat 18:31:37 39.5336 -89.8472 217° Southwest 441 507 33,500 732 Climbing Kansas City Center
Sat 18:32:39 39.4192 -89.9567 216° Southwest 431 496 34,000 244 Climbing Kansas City Center
Sat 18:33:40 39.3231 -90.0483 216° Southwest 429 494 34,000  Level Kansas City Center
Sat 18:34:41 39.2264 -90.1389 216° Southwest 430 495 34,000  Level Kansas City Center
Sat 18:35:43 39.1289 -90.2317 216° Southwest 434 499 34,000  Level Kansas City Center
Sat 18:36:44 39.0319 -90.3236 216° Southwest 436 502 34,000  Level Kansas City Center
Sat 18:37:46 38.9297 -90.4189 216° Southwest 434 499 34,000  Level Kansas City Center
Sat 18:38:47 38.8325 -90.5150 218° Southwest 439 505 34,000  Level Kansas City Center
Sat 18:39:49 38.7386 -90.6253 223° Southwest 452 520 34,000  Level Kansas City Center
Sat 18:40:50 38.6375 -90.7394 221° Southwest 452 520 34,000  Level Kansas City Center
Sat 18:41:52 38.5433 -90.8492 222° Southwest 459 528 34,000  Level Kansas City Center
Sat 18:42:53 38.4489 -90.9581 222° Southwest 460 529 34,000  Level Kansas City Center
Sat 18:43:55 38.3544 -91.0653 222° Southwest 457 526 34,000  Level Kansas City Center
Sat 18:44:56 38.2397 -91.1961 222° Southwest 461 531 34,000  Level Kansas City Center
Sat 18:45:58 38.1442 -91.3028 221° Southwest 464 534 34,000  Level Kansas City Center
Sat 18:46:59 38.0475 -91.4133 222° Southwest 465 535 34,000  Level Kansas City Center
Sat 18:48:01 37.9533 -91.5219 222° Southwest 460 529 34,000  Level Kansas City Center
Sat 18:49:02 37.8550 -91.6311 221° Southwest 461 531 34,000  Level Kansas City Center
Sat 18:50:03 37.7567 -91.7417 222° Southwest 465 535 34,000  Level Kansas City Center
Sat 18:51:05 37.6539 -91.8539 221° Southwest 476 548 34,000  Level Kansas City Center
Sat 18:52:06 37.5558 -91.9650 222° Southwest 471 542 34,000  Level Kansas City Center
Sat 18:53:08 37.4581 -92.0744 222° Southwest 467 537 34,000  Level Kansas City Center
Sat 18:54:09 37.3589 -92.1814 221° Southwest 466 536 34,000  Level Kansas City Center
Sat 18:55:11 37.2603 -92.2908 221° Southwest 468 539 34,000  Level Kansas City Center
Sat 18:56:12 37.1408 -92.4203 221° Southwest 470 541 34,000  Level Kansas City Center
Sat 18:57:14 37.0428 -92.5275 221° Southwest 466 536 34,000  Level Kansas City Center
Sat 18:58:15 36.9431 -92.6328 220° Southwest 467 537 34,000  Level Kansas City Center
Sat 18:59:17 36.8439 -92.7400 221° Southwest 467 537 34,000  Level Kansas City Center
Sat 18:59:44 36.8042 -92.7850 222° Southwest 472 543 34,000  Level Memphis Center
Sat 19:00:44 36.7106 -92.8856 221° Southwest 467 537 34,000  Level Memphis Center
Sat 19:01:44 36.6125 -92.9936 222° Southwest 467 537 34,000  Level Memphis Center
Sat 19:02:44 36.5164 -93.0939 220° Southwest 462 532 34,000  Level Memphis Center
Sat 19:03:44 36.4075 -93.2089 220° Southwest 462 532 34,000  Level Memphis Center
Sat 19:04:44 36.3114 -93.3111 221° Southwest 462 532 34,000  Level Memphis Center
Sat 19:05:44 36.2131 -93.4131 220° Southwest 462 532 34,000  Level Memphis Center
Sat 19:06:44 36.1167 -93.5172 221° Southwest 462 532 34,000  Level Memphis Center
Sat 19:07:44 36.0200 -93.6189 220° Southwest 462 532 34,000  Level Memphis Center
Sat 19:08:44 35.9236 -93.7175 220° Southwest 462 532 34,000  Level Memphis Center
Sat 19:09:44 35.8206 -93.8233 220° Southwest 472 543 34,000  Level Memphis Center
Sat 19:10:44 35.7239 -93.9242 220° Southwest 472 543 34,000  Level Memphis Center
Sat 19:11:44 35.6272 -94.0247 220° Southwest 466 536 34,000  Level Memphis Center
Sat 19:12:44 35.5306 -94.1225 219° Southwest 460 529 34,000  Level Memphis Center
Sat 19:13:44 35.4336 -94.2225 220° Southwest 466 536 34,000  Level Memphis Center
Sat 19:16:03 35.1914 -94.4236 214° Southwest 461 531 34,000  Level Fort Worth Center
Sat 19:17:03 35.0828 -94.5061 212° Southwest 475 547 34,000  Level Fort Worth Center
Sat 19:18:03 34.9783 -94.5906 214° Southwest 469 540 34,000  Level Fort Worth Center
Sat 19:19:03 34.8736 -94.6675 211° Southwest 456 525 34,000  Level Fort Worth Center
Sat 19:20:03 34.7647 -94.7494 212° Southwest 456 525 34,000  Level Fort Worth Center
Sat 19:21:03 34.6581 -94.8311 212° Southwest 456 525 34,000  Level Fort Worth Center
Sat 19:22:03 34.5531 -94.9097 212° Southwest 456 525 34,000  Level Fort Worth Center
Sat 19:23:03 34.4464 -94.9883 211° Southwest 456 525 34,000  Level Fort Worth Center
Sat 19:24:03 34.3372 -95.0719 212° Southwest 456 525 34,000  Level Fort Worth Center
Sat 19:25:03 34.2303 -95.1503 211° Southwest 456 525 34,000  Level Fort Worth Center
Sat 19:26:03 34.1253 -95.2283 212° Southwest 456 525 34,000  Level Fort Worth Center
Sat 19:27:03 34.0200 -95.3061 211° Southwest 449 517 34,000  Level Fort Worth Center
Sat 19:28:03 33.9169 -95.3836 212° Southwest 444 511 34,000  Level Fort Worth Center
Sat 19:29:03 33.8158 -95.4561 211° Southwest 444 511 34,000  Level Fort Worth Center
Sat 19:30:03 33.7147 -95.5306 211° Southwest 439 505 34,000  Level Fort Worth Center
Sat 19:31:03 33.6136 -95.6053 212° Southwest 433 498 34,000  Level Fort Worth Center
Sat 19:32:03 33.5269 -95.6692 212° Southwest 421 484 34,000  Level Fort Worth Center
Sat 19:33:03 33.4172 -95.7486 211° Southwest 421 484 34,000  Level Fort Worth Center
Sat 19:34:03 33.3264 -95.8150 211° Southwest 426 490 34,000  Level Fort Worth Center
Sat 19:35:03 33.2147 -95.8939 211° Southwest 426 490 34,000  Level Fort Worth Center
Sat 19:36:03 33.1278 -95.9572 211° Southwest 420 483 34,000  Level Fort Worth Center
Sat 19:37:03 33.0158 -96.0358 210° Southwest 427 491 34,000  Level Fort Worth Center
Sat 19:38:03 32.9247 -96.1017 211° Southwest 422 486 34,000  Level Fort Worth Center
Sat 19:39:03 32.8147 -96.1800 211° Southwest 422 486 34,000  Level Fort Worth Center
Sat 19:40:03 32.7256 -96.2428 211° Southwest 422 486 34,000  Level Fort Worth Center
Sat 19:41:03 32.6178 -96.3208 211° Southwest 422 486 34,000  Level Fort Worth Center
Sat 19:42:03 32.5181 -96.3908 211° Southwest 422 486 34,000  Level Fort Worth Center
Sat 19:43:03 32.4164 -96.4636 211° Southwest 422 486 34,000  Level Fort Worth Center
Sat 19:44:03 32.3167 -96.5333 211° Southwest 427 491 34,000  Level Fort Worth Center
Sat 19:45:03 32.2275 -96.5981 212° Southwest 427 491 34,000  Level Fort Worth Center
Sat 19:46:03 32.1278 -96.6675 211° Southwest 422 486 34,000 -500 Level Fort Worth Center
Sat 19:47:03 32.0278 -96.7369 210° Southwest 428 493 33,000 -1,000 Descending Fort Worth Center
Sat 19:48:03 31.9175 -96.8136 211° Southwest 423 487 32,000 -1,100 Descending Fort Worth Center
Sat 19:49:03 31.8156 -96.8853 211° Southwest 428 493 30,800 -1,250 Descending Fort Worth Center
Sat 19:50:03 31.7114 -96.9592 211° Southwest 428 493 29,500 -1,500 Descending Fort Worth Center
Sat 19:51:03 31.6072 -97.0303 210° Southwest 428 493 27,800 -1,686 Descending Fort Worth Center
Sat 19:52:04 31.4969 -97.0967 207° Southwest 452 520 26,100 -1,869 Descending Houston Center
Sat 19:53:05 31.3739 -97.1439 198° South 461 531 24,000 -1,951 Descending Houston Center
Sat 19:54:07 31.2544 -97.1914 199° South 450 518 22,100 -2,226 Descending Houston Center
Sat 19:55:09 31.1414 -97.2361 199° South 431 496 19,400 -2,634 Descending Houston Center
Sat 19:56:10 31.0303 -97.2792 198° South 422 486 16,700 -2,683 Descending Houston Center
Sat 19:57:12 30.9103 -97.3264 199° South 407 468 13,900 -2,371 Descending Houston Center
Sat 19:58:14 30.8069 -97.3661 198° South 394 453 11,800 -1,561 Descending Houston Center
Sat 19:59:15 30.7147 -97.4022 199° South 354 407 10,700 -1,073 Descending Houston Center
Sat 20:00:17 30.6328 -97.4333 198° South 316 364 9,600 -1,073 Descending Houston Center
Sat 20:01:18 30.5519 -97.4614 197° South 303 349 8,500 -1,220 Descending Houston Center
Sat 20:02:20 30.4697 -97.4650 182° South 295 339 7,100 -1,415 Descending Houston Center
Sat 20:03:21 30.3906 -97.4697 183° South 285 328 5,600 -1,180 Descending Houston Center
Sat 20:04:22 30.3106 -97.4728 182° South 284 327 4,700 -780 Descending Houston Center
Sat 20:05:24 30.2331 -97.4761 182° South 279 321 4,000 -780 Descending Houston Center
Sat 20:06:25 30.1664 -97.5133 206° Southwest 273 314 3,100 -885 Descending Houston Center

Login

Don't have an account? Register now (free) for customized features, flight alerts, and more!